Time;durP1;ratioP1;P1;durP2;ratioP2;P2;SDS_P1;SDS_P2;PMS_P1;PMS_P2;Temp;Humidity;BMP_temperature;BMP_pressure;BME280_temperature;BME280_humidity;BME280_pressure;Samples;Min_cycle;Max_cycle;Signal;HPM_P1;HPM_P2
2022/10/30 00:00:56;;;;;;;;;;;12.80;60.40;;;;;;5002148;28;87312;-39
2022/10/30 00:03:21;;;;;;;;;;;12.70;60.40;;;;;;5001588;28;87946;-39
2022/10/30 00:05:48;;;;;;;;;;;12.70;60.40;;;;;;5001959;28;86992;-39
2022/10/30 00:08:14;;;;;;;;;;;12.70;60.30;;;;;;5005223;28;87337;-39
2022/10/30 00:10:40;;;;;;;;;;;12.70;60.30;;;;;;5005592;28;87147;-39
2022/10/30 00:13:06;;;;;;;;;;;12.70;60.40;;;;;;5007715;28;87192;-39
2022/10/30 00:15:31;;;;;;;;;;;12.70;60.50;;;;;;5004936;28;87935;-39
2022/10/30 00:17:57;;;;;;;;;;;12.70;60.40;;;;;;5004549;28;88057;-39
2022/10/30 00:20:22;;;;;;;;;;;12.70;60.40;;;;;;5005369;28;88358;-39
2022/10/30 00:22:48;;;;;;;;;;;12.70;60.40;;;;;;5004606;28;88098;-39
2022/10/30 00:25:13;;;;;;;;;;;12.70;60.40;;;;;;5005283;28;87170;-39
2022/10/30 00:27:39;;;;;;;;;;;12.60;60.40;;;;;;5005361;28;87457;-39
2022/10/30 00:30:05;;;;;;;;;;;12.60;60.40;;;;;;5004989;28;88140;-39
2022/10/30 00:32:30;;;;;;;;;;;12.60;60.30;;;;;;5005035;28;86992;-39
2022/10/30 00:34:56;;;;;;;;;;;12.60;60.30;;;;;;5008119;28;87494;-39
2022/10/30 00:37:21;;;;;;;;;;;12.60;60.30;;;;;;5005070;28;87141;-39
2022/10/30 00:39:47;;;;;;;;;;;12.60;60.40;;;;;;5004777;28;87280;-39
2022/10/30 00:42:13;;;;;;;;;;;12.50;60.40;;;;;;5004241;28;89076;-39
2022/10/30 00:44:38;;;;;;;;;;;12.60;60.50;;;;;;5004912;28;87065;-39
2022/10/30 00:47:09;;;;;;;;;;;12.60;60.40;;;;;;5005025;28;87482;-39
2022/10/30 00:49:37;;;;;;;;;;;12.50;60.50;;;;;;5004747;28;87989;-39
2022/10/30 00:52:04;;;;;;;;;;;12.50;60.50;;;;;;5004556;28;87142;-39
2022/10/30 00:54:30;;;;;;;;;;;12.50;60.50;;;;;;5004604;28;87812;-39
2022/10/30 00:56:55;;;;;;;;;;;12.50;60.40;;;;;;5007328;28;87938;-39
2022/10/30 00:59:23;;;;;;;;;;;12.50;60.50;;;;;;5005148;28;87451;-39
2022/10/30 01:01:49;;;;;;;;;;;12.50;60.60;;;;;;5004187;28;88134;-39
2022/10/30 01:04:15;;;;;;;;;;;12.40;60.40;;;;;;5004522;28;87102;-39
2022/10/30 01:06:41;;;;;;;;;;;12.40;60.50;;;;;;5004103;28;88222;-39
2022/10/30 01:09:07;;;;;;;;;;;12.40;60.40;;;;;;5004054;28;88185;-39
2022/10/30 01:11:33;;;;;;;;;;;12.40;60.60;;;;;;5004218;28;86896;-39
2022/10/30 01:14:01;;;;;;;;;;;12.40;60.50;;;;;;5004612;28;87492;-39
2022/10/30 01:16:45;;;;;;;;;;;12.40;60.50;;;;;;5003953;28;88005;-39
2022/10/30 01:19:29;;;;;;;;;;;12.30;61.10;;;;;;5006912;28;87190;-39
2022/10/30 01:22:13;;;;;;;;;;;12.30;60.50;;;;;;5004003;28;87849;-39
2022/10/30 01:24:38;;;;;;;;;;;12.40;60.60;;;;;;5004679;28;86448;-39
2022/10/30 01:27:07;;;;;;;;;;;12.30;60.50;;;;;;5004270;28;87047;-39
2022/10/30 01:29:38;;;;;;;;;;;12.30;61.10;;;;;;5003808;28;87270;-39
2022/10/30 01:32:12;;;;;;;;;;;12.30;60.60;;;;;;5003131;28;87936;-39
2022/10/30 01:34:56;;;;;;;;;;;12.30;60.60;;;;;;5004273;28;88546;-39
2022/10/30 01:37:29;;;;;;;;;;;12.30;60.60;;;;;;5003764;28;88149;-39
2022/10/30 01:39:54;;;;;;;;;;;12.30;60.50;;;;;;5004053;28;87058;-39
2022/10/30 01:42:38;;;;;;;;;;;12.20;60.50;;;;;;5006471;28;87367;-39
2022/10/30 01:45:04;;;;;;;;;;;12.20;60.50;;;;;;5004127;28;87403;-39
2022/10/30 01:47:41;;;;;;;;;;;12.20;60.40;;;;;;5003969;28;87389;-39
2022/10/30 01:50:17;;;;;;;;;;;12.20;60.60;;;;;;5004045;28;87470;-38
2022/10/30 01:52:54;;;;;;;;;;;12.20;60.40;;;;;;5003747;28;87106;-39
2022/10/30 01:55:23;;;;;;;;;;;12.20;60.30;;;;;;5004016;28;87517;-39
2022/10/30 01:57:59;;;;;;;;;;;12.20;60.50;;;;;;5002768;28;88837;-39
2022/10/30 02:00:25;;;;;;;;;;;12.20;60.50;;;;;;5003651;28;87478;-39
2022/10/30 02:02:51;;;;;;;;;;;12.20;60.40;;;;;;5003491;28;87453;-39
2022/10/30 02:05:42;;;;;;;;;;;12.20;60.40;;;;;;5006101;28;87818;-38
2022/10/30 02:08:08;;;;;;;;;;;12.20;60.60;;;;;;5003385;28;87287;-38
2022/10/30 02:10:34;;;;;;;;;;;12.10;60.40;;;;;;5003294;28;87107;-39
2022/10/30 02:13:00;;;;;;;;;;;12.10;60.50;;;;;;5003292;28;87009;-39
2022/10/30 02:15:26;;;;;;;;;;;12.10;60.40;;;;;;5003988;28;87258;-39
2022/10/30 02:17:52;;;;;;;;;;;12.20;60.40;;;;;;5003132;28;88028;-39
2022/10/30 02:20:18;;;;;;;;;;;12.10;60.40;;;;;;5003535;28;86969;-39
2022/10/30 02:22:43;;;;;;;;;;;12.10;60.30;;;;;;5002935;28;87949;-39
2022/10/30 02:25:09;;;;;;;;;;;12.10;60.40;;;;;;5005961;28;88170;-39
2022/10/30 02:27:35;;;;;;;;;;;12.10;60.40;;;;;;5003289;28;87396;-39
2022/10/30 02:30:00;;;;;;;;;;;12.10;60.40;;;;;;5002464;28;88154;-39
2022/10/30 02:32:26;;;;;;;;;;;12.00;60.40;;;;;;5002908;28;87523;-39
2022/10/30 02:34:51;;;;;;;;;;;12.10;60.30;;;;;;5001787;28;90422;-39
2022/10/30 02:37:17;;;;;;;;;;;12.00;60.40;;;;;;5003183;28;88075;-39
2022/10/30 02:39:42;;;;;;;;;;;12.00;60.40;;;;;;5003530;28;86318;-39
2022/10/30 02:42:08;;;;;;;;;;;12.00;60.30;;;;;;5003276;28;86922;-39
2022/10/30 02:44:33;;;;;;;;;;;12.00;60.30;;;;;;5002769;28;87162;-38
2022/10/30 02:46:59;;;;;;;;;;;12.00;60.30;;;;;;5005427;28;88063;-39
2022/10/30 02:49:25;;;;;;;;;;;11.90;60.40;;;;;;5002482;28;88013;-39
2022/10/30 02:51:51;;;;;;;;;;;12.00;60.30;;;;;;5002893;28;87087;-39
2022/10/30 02:54:16;;;;;;;;;;;12.00;60.40;;;;;;5002984;28;87608;-38
2022/10/30 02:56:42;;;;;;;;;;;11.90;60.50;;;;;;5002641;28;88075;-39
2022/10/30 02:59:07;;;;;;;;;;;11.90;60.40;;;;;;5002895;28;87067;-39
2022/10/30 03:01:33;;;;;;;;;;;11.90;60.30;;;;;;5002976;28;87001;-39
2022/10/30 03:03:58;;;;;;;;;;;11.90;60.30;;;;;;5002704;28;87379;-39
2022/10/30 03:06:24;;;;;;;;;;;11.90;60.20;;;;;;5002809;28;86950;-39
2022/10/30 03:08:50;;;;;;;;;;;11.90;60.40;;;;;;5005302;28;87512;-39
2022/10/30 03:11:16;;;;;;;;;;;11.80;60.30;;;;;;5001636;28;88008;-39
2022/10/30 03:13:42;;;;;;;;;;;11.90;60.40;;;;;;5002744;28;88196;-39
2022/10/30 03:16:12;;;;;;;;;;;11.80;60.30;;;;;;5002196;28;88284;-38
2022/10/30 03:18:38;;;;;;;;;;;11.90;60.30;;;;;;5002467;28;87108;-38
2022/10/30 03:21:05;;;;;;;;;;;11.80;60.30;;;;;;5002644;28;87450;-39
2022/10/30 03:23:30;;;;;;;;;;;11.80;60.30;;;;;;5002005;28;87962;-39
2022/10/30 03:25:57;;;;;;;;;;;11.80;60.30;;;;;;5002393;28;87155;-39
2022/10/30 03:28:23;;;;;;;;;;;11.80;60.50;;;;;;5003039;28;87502;-39
2022/10/30 03:30:48;;;;;;;;;;;11.80;60.30;;;;;;5005049;28;88529;-39
2022/10/30 03:33:14;;;;;;;;;;;11.70;60.30;;;;;;5002313;28;87340;-38
2022/10/30 03:35:41;;;;;;;;;;;11.70;60.30;;;;;;5001449;28;88307;-38
2022/10/30 03:38:07;;;;;;;;;;;11.70;60.30;;;;;;5002234;28;87199;-39
2022/10/30 03:40:32;;;;;;;;;;;11.70;60.40;;;;;;5002964;28;87383;-39
2022/10/30 03:42:58;;;;;;;;;;;11.70;60.30;;;;;;5005462;28;87316;-39
2022/10/30 03:45:23;;;;;;;;;;;11.70;60.30;;;;;;5006026;28;87370;-39
2022/10/30 03:47:49;;;;;;;;;;;11.70;61.00;;;;;;5005808;28;87516;-39
2022/10/30 03:50:14;;;;;;;;;;;11.70;60.30;;;;;;5005406;28;88126;-39
2022/10/30 03:52:40;;;;;;;;;;;11.70;60.30;;;;;;5009140;28;86320;-39
2022/10/30 03:55:05;;;;;;;;;;;11.70;60.30;;;;;;5005344;28;88139;-39
2022/10/30 03:57:34;;;;;;;;;;;11.70;60.30;;;;;;5005674;28;86940;-39
2022/10/30 04:00:00;;;;;;;;;;;11.70;60.10;;;;;;5004780;28;87963;-38
2022/10/30 04:02:25;;;;;;;;;;;11.70;60.30;;;;;;5005110;28;88290;-38
2022/10/30 04:04:51;;;;;;;;;;;11.60;60.20;;;;;;5005524;28;87107;-38
2022/10/30 04:07:16;;;;;;;;;;;11.60;60.20;;;;;;5005631;28;87548;-39
2022/10/30 04:09:42;;;;;;;;;;;11.60;60.20;;;;;;5005307;28;87631;-39
2022/10/30 04:12:07;;;;;;;;;;;11.60;60.30;;;;;;5005069;28;87111;-39
2022/10/30 04:14:33;;;;;;;;;;;11.60;60.30;;;;;;5007959;28;87274;-38
2022/10/30 04:16:58;;;;;;;;;;;11.60;60.30;;;;;;5005754;28;86365;-38
2022/10/30 04:19:24;;;;;;;;;;;11.60;60.30;;;;;;5005572;28;87059;-39
2022/10/30 04:21:50;;;;;;;;;;;11.60;60.20;;;;;;5004983;28;88095;-39
2022/10/30 04:24:17;;;;;;;;;;;11.50;60.20;;;;;;5004635;28;87968;-39
2022/10/30 04:26:43;;;;;;;;;;;11.50;60.20;;;;;;5005067;28;88666;-39
2022/10/30 04:29:08;;;;;;;;;;;11.50;60.30;;;;;;5004756;28;87649;-39
2022/10/30 04:31:34;;;;;;;;;;;11.50;60.20;;;;;;5004968;28;87167;-39
2022/10/30 04:34:00;;;;;;;;;;;11.50;60.10;;;;;;5007644;28;87298;-38
2022/10/30 04:36:31;;;;;;;;;;;11.50;60.20;;;;;;5005202;28;86927;-39
2022/10/30 04:38:57;;;;;;;;;;;11.40;60.20;;;;;;5005087;28;87315;-39
2022/10/30 04:41:23;;;;;;;;;;;11.50;60.20;;;;;;5005306;28;87182;-39
2022/10/30 04:43:49;;;;;;;;;;;11.50;60.20;;;;;;5004855;28;87107;-39
2022/10/30 04:46:16;;;;;;;;;;;11.50;60.20;;;;;;5004688;28;88124;-39
2022/10/30 04:48:41;;;;;;;;;;;11.40;60.10;;;;;;5003916;28;88960;-38
2022/10/30 04:51:08;;;;;;;;;;;11.40;60.10;;;;;;5004851;28;87032;-39
2022/10/30 04:53:33;;;;;;;;;;;11.40;60.20;;;;;;5003952;28;87860;-39
2022/10/30 04:55:59;;;;;;;;;;;11.40;60.30;;;;;;5007568;28;87953;-38
2022/10/30 04:58:24;;;;;;;;;;;11.40;60.20;;;;;;5004723;28;87441;-39
2022/10/30 05:00:50;;;;;;;;;;;11.40;60.20;;;;;;5004066;28;87765;-39
2022/10/30 05:03:17;;;;;;;;;;;11.40;60.30;;;;;;5004640;28;87111;-38
2022/10/30 05:05:43;;;;;;;;;;;11.40;60.20;;;;;;5005182;28;87330;-38
2022/10/30 05:08:08;;;;;;;;;;;11.30;60.30;;;;;;5004179;28;87948;-38
2022/10/30 05:10:34;;;;;;;;;;;11.30;60.20;;;;;;5004426;28;87244;-39
2022/10/30 05:12:59;;;;;;;;;;;11.30;60.70;;;;;;5003520;28;87864;-39
2022/10/30 05:15:25;;;;;;;;;;;11.30;60.10;;;;;;5003905;28;88128;-39
2022/10/30 05:17:51;;;;;;;;;;;11.30;60.20;;;;;;5007362;28;87138;-39
2022/10/30 05:20:17;;;;;;;;;;;11.30;60.20;;;;;;5004088;28;88042;-39
2022/10/30 05:22:42;;;;;;;;;;;11.30;60.30;;;;;;5004303;28;87047;-39
2022/10/30 05:25:08;;;;;;;;;;;11.30;60.20;;;;;;5004166;28;87515;-38
2022/10/30 05:27:33;;;;;;;;;;;11.30;60.20;;;;;;5003988;28;87969;-38
2022/10/30 05:29:59;;;;;;;;;;;11.20;60.20;;;;;;5004686;28;86387;-39
2022/10/30 05:32:24;;;;;;;;;;;11.20;60.20;;;;;;5004003;28;87068;-38
2022/10/30 05:34:50;;;;;;;;;;;11.20;60.10;;;;;;5003760;28;88216;-39
2022/10/30 05:37:15;;;;;;;;;;;11.20;60.20;;;;;;5003655;28;88117;-39
2022/10/30 05:39:40;;;;;;;;;;;11.20;60.20;;;;;;5006555;28;88322;-39
2022/10/30 05:42:06;;;;;;;;;;;11.20;60.20;;;;;;5004164;28;87098;-38
2022/10/30 05:44:31;;;;;;;;;;;11.20;60.10;;;;;;5004086;28;87519;-39
2022/10/30 05:46:57;;;;;;;;;;;11.20;60.10;;;;;;5003325;28;88136;-39
2022/10/30 05:49:22;;;;;;;;;;;11.20;60.20;;;;;;5003862;28;87119;-39
2022/10/30 05:51:48;;;;;;;;;;;11.20;60.20;;;;;;5003958;28;87638;-39
2022/10/30 05:54:13;;;;;;;;;;;11.20;60.30;;;;;;5004026;28;86589;-38
2022/10/30 05:56:39;;;;;;;;;;;11.20;60.10;;;;;;5003832;28;87546;-39
2022/10/30 05:59:04;;;;;;;;;;;11.10;60.20;;;;;;5003812;28;87366;-39
2022/10/30 06:01:30;;;;;;;;;;;11.10;60.20;;;;;;5005710;28;89279;-39
2022/10/30 06:03:56;;;;;;;;;;;11.20;60.10;;;;;;5002511;28;88338;-38
2022/10/30 06:06:21;;;;;;;;;;;11.20;60.10;;;;;;5003303;28;88145;-38
2022/10/30 06:08:47;;;;;;;;;;;11.10;60.10;;;;;;5003545;28;87139;-38
2022/10/30 06:11:12;;;;;;;;;;;11.10;60.20;;;;;;5003400;28;87260;-38
2022/10/30 06:13:39;;;;;;;;;;;11.10;60.20;;;;;;5003178;28;87941;-39
2022/10/30 06:16:04;;;;;;;;;;;11.10;60.10;;;;;;5003675;28;87035;-39
2022/10/30 06:18:30;;;;;;;;;;;11.10;60.10;;;;;;5004049;28;87446;-39
2022/10/30 06:20:55;;;;;;;;;;;11.10;60.10;;;;;;5003217;28;87870;-38
2022/10/30 06:23:21;;;;;;;;;;;11.10;60.10;;;;;;5006061;28;87001;-39
2022/10/30 06:25:46;;;;;;;;;;;11.10;60.10;;;;;;5002216;28;89088;-39
2022/10/30 06:28:13;;;;;;;;;;;11.10;60.10;;;;;;5003397;28;87135;-39
2022/10/30 06:30:38;;;;;;;;;;;11.10;60.20;;;;;;5003327;28;87367;-38
2022/10/30 06:33:04;;;;;;;;;;;11.10;60.20;;;;;;5002807;28;88548;-39
2022/10/30 06:35:30;;;;;;;;;;;11.10;60.10;;;;;;5003042;28;87494;-39
2022/10/30 06:37:58;;;;;;;;;;;11.10;60.10;;;;;;5003213;28;87451;-38
2022/10/30 06:40:24;;;;;;;;;;;11.10;60.10;;;;;;5002512;28;87838;-38
2022/10/30 06:42:51;;;;;;;;;;;11.10;60.20;;;;;;5006530;28;86378;-38
2022/10/30 06:45:17;;;;;;;;;;;11.10;60.20;;;;;;5002861;28;88137;-39
2022/10/30 06:47:43;;;;;;;;;;;11.10;60.20;;;;;;5002810;28;87377;-39
2022/10/30 06:50:10;;;;;;;;;;;11.10;60.20;;;;;;5002562;28;87967;-38
2022/10/30 06:52:36;;;;;;;;;;;11.10;60.20;;;;;;5002674;28;88438;-39
2022/10/30 06:55:02;;;;;;;;;;;11.10;60.20;;;;;;5003043;28;86879;-39
2022/10/30 06:57:28;;;;;;;;;;;11.00;60.20;;;;;;5002906;28;87023;-39
2022/10/30 06:59:53;;;;;;;;;;;11.00;60.40;;;;;;5002664;28;88179;-38
2022/10/30 07:02:19;;;;;;;;;;;11.00;60.30;;;;;;5002756;28;87285;-38
2022/10/30 07:04:44;;;;;;;;;;;11.00;60.40;;;;;;5005231;28;87096;-39
2022/10/30 07:07:10;;;;;;;;;;;11.00;60.40;;;;;;5003268;28;86382;-39
2022/10/30 07:09:36;;;;;;;;;;;11.00;60.50;;;;;;5002699;28;87321;-39
2022/10/30 07:12:01;;;;;;;;;;;11.00;60.50;;;;;;5002203;28;87402;-39
2022/10/30 07:14:27;;;;;;;;;;;11.00;60.40;;;;;;5001851;28;87930;-39
2022/10/30 07:16:55;;;;;;;;;;;10.90;60.40;;;;;;5002010;28;87529;-39
2022/10/30 07:19:21;;;;;;;;;;;11.00;60.50;;;;;;5002358;28;87927;-39
2022/10/30 07:21:47;;;;;;;;;;;11.00;60.50;;;;;;5002513;28;87019;-39
2022/10/30 07:24:12;;;;;;;;;;;11.00;60.40;;;;;;5002449;28;87294;-38
2022/10/30 07:26:38;;;;;;;;;;;11.00;60.50;;;;;;5005129;28;87060;-38
2022/10/30 07:29:03;;;;;;;;;;;11.00;60.50;;;;;;5002574;28;87311;-39
2022/10/30 07:31:29;;;;;;;;;;;11.00;60.60;;;;;;5002735;28;87209;-38
2022/10/30 07:33:55;;;;;;;;;;;11.00;60.60;;;;;;5002302;28;88372;-38
2022/10/30 07:36:21;;;;;;;;;;;11.00;60.70;;;;;;5002658;28;87399;-39
2022/10/30 07:38:47;;;;;;;;;;;11.00;60.60;;;;;;5001274;28;88177;-39
2022/10/30 07:41:12;;;;;;;;;;;11.00;60.60;;;;;;5002360;28;87101;-39
2022/10/30 07:43:38;;;;;;;;;;;11.00;60.60;;;;;;5002206;28;87339;-39
2022/10/30 07:46:03;;;;;;;;;;;11.00;60.70;;;;;;5001677;28;87978;-39
2022/10/30 07:48:29;;;;;;;;;;;11.00;60.60;;;;;;5005288;28;87182;-39
2022/10/30 07:50:54;;;;;;;;;;;11.00;60.50;;;;;;5001916;28;88146;-39
2022/10/30 07:53:20;;;;;;;;;;;11.00;60.60;;;;;;5002110;28;87159;-39
2022/10/30 07:55:45;;;;;;;;;;;11.00;60.70;;;;;;5002657;28;88059;-39
2022/10/30 07:58:11;;;;;;;;;;;11.00;60.80;;;;;;5001881;28;87391;-39
2022/10/30 08:00:36;;;;;;;;;;;11.00;60.80;;;;;;5002336;28;87099;-38
2022/10/30 08:03:01;;;;;;;;;;;11.00;60.80;;;;;;5001256;28;87924;-39
2022/10/30 08:05:27;;;;;;;;;;;11.00;60.90;;;;;;5001770;28;88044;-38
2022/10/30 08:07:53;;;;;;;;;;;11.00;60.90;;;;;;5001999;28;86989;-39
2022/10/30 08:10:19;;;;;;;;;;;11.00;60.90;;;;;;5004623;28;87422;-39
2022/10/30 08:12:46;;;;;;;;;;;11.00;61.00;;;;;;5001439;28;87139;-39
2022/10/30 08:15:12;;;;;;;;;;;11.00;61.00;;;;;;5001923;28;87338;-39
2022/10/30 08:17:41;;;;;;;;;;;11.00;61.00;;;;;;5001600;28;88049;-38
2022/10/30 08:20:07;;;;;;;;;;;11.00;61.00;;;;;;5002274;28;86370;-39
2022/10/30 08:22:32;;;;;;;;;;;10.90;61.00;;;;;;5002054;28;87075;-39
2022/10/30 08:24:58;;;;;;;;;;;11.00;61.00;;;;;;5001205;28;87926;-39
2022/10/30 08:27:23;;;;;;;;;;;10.90;61.00;;;;;;5001796;28;88050;-39
2022/10/30 08:29:49;;;;;;;;;;;10.90;61.10;;;;;;5007558;28;88489;-38
2022/10/30 08:32:14;;;;;;;;;;;10.90;61.10;;;;;;5005141;28;87450;-39
2022/10/30 08:34:40;;;;;;;;;;;10.90;61.20;;;;;;5005365;28;87492;-39
2022/10/30 08:37:06;;;;;;;;;;;10.90;61.20;;;;;;5004671;28;87969;-38
2022/10/30 08:39:32;;;;;;;;;;;10.90;61.40;;;;;;5004687;28;87207;-39
2022/10/30 08:41:58;;;;;;;;;;;10.90;61.40;;;;;;5005036;28;86982;-39
2022/10/30 08:44:24;;;;;;;;;;;11.00;61.40;;;;;;5004992;28;87158;-39
2022/10/30 08:46:49;;;;;;;;;;;11.00;61.40;;;;;;5004607;28;87187;-39
2022/10/30 08:49:15;;;;;;;;;;;11.00;61.40;;;;;;5004944;28;87368;-39
2022/10/30 08:51:40;;;;;;;;;;;11.00;61.60;;;;;;5006934;28;88231;-39
2022/10/30 08:54:07;;;;;;;;;;;11.00;61.50;;;;;;5004826;28;88321;-39
2022/10/30 08:56:32;;;;;;;;;;;11.00;61.50;;;;;;5004392;28;88199;-39
2022/10/30 08:58:58;;;;;;;;;;;11.00;61.70;;;;;;5004783;28;87126;-39
2022/10/30 09:01:24;;;;;;;;;;;11.00;61.70;;;;;;5004576;28;87304;-39
2022/10/30 09:03:49;;;;;;;;;;;11.00;61.60;;;;;;5004194;28;88046;-39
2022/10/30 09:06:15;;;;;;;;;;;11.00;61.60;;;;;;5004763;28;87614;-39
2022/10/30 09:08:40;;;;;;;;;;;10.90;62.00;;;;;;5005224;28;88576;-39
2022/10/30 09:11:05;;;;;;;;;;;10.90;61.90;;;;;;5004189;28;88018;-39
2022/10/30 09:13:31;;;;;;;;;;;11.00;61.80;;;;;;5007093;28;90863;-39
2022/10/30 09:16:00;;;;;;;;;;;11.00;61.80;;;;;;5003160;28;89047;-39
2022/10/30 09:18:26;;;;;;;;;;;11.00;61.80;;;;;;5003914;28;87115;-39
2022/10/30 09:20:51;;;;;;;;;;;11.00;61.90;;;;;;5004268;28;87429;-39
2022/10/30 09:23:17;;;;;;;;;;;11.10;61.90;;;;;;5004060;28;88011;-39
2022/10/30 09:25:42;;;;;;;;;;;11.10;61.90;;;;;;5004220;28;86937;-39
2022/10/30 09:28:08;;;;;;;;;;;11.10;61.70;;;;;;5004316;28;87443;-39
2022/10/30 09:30:33;;;;;;;;;;;11.10;62.00;;;;;;5003789;28;87922;-39
2022/10/30 09:33:01;;;;;;;;;;;11.10;62.20;;;;;;5004689;28;86502;-39
2022/10/30 09:35:27;;;;;;;;;;;11.20;62.10;;;;;;5006728;28;86967;-39
2022/10/30 09:37:52;;;;;;;;;;;11.20;62.20;;;;;;5004159;28;87089;-39
2022/10/30 09:40:23;;;;;;;;;;;11.20;62.50;;;;;;5003318;28;88041;-38
2022/10/30 09:42:49;;;;;;;;;;;11.20;62.50;;;;;;5003535;28;88315;-39
2022/10/30 09:45:30;;;;;;;;;;;11.20;62.40;;;;;;5003956;28;87590;-39
2022/10/30 09:48:01;;;;;;;;;;;11.20;62.50;;;;;;5004044;28;87415;-39
2022/10/30 09:50:52;;;;;;;;;;;11.20;62.60;;;;;;5003624;28;87971;-39
2022/10/30 09:53:17;;;;;;;;;;;11.20;62.70;;;;;;5004074;28;86956;-39
2022/10/30 09:55:49;;;;;;;;;;;11.20;62.30;;;;;;5003627;28;87661;-39
2022/10/30 09:58:24;;;;;;;;;;;11.30;62.70;;;;;;5006967;28;87464;-38
2022/10/30 10:00:52;;;;;;;;;;;11.30;62.60;;;;;;5003618;28;87046;-39
2022/10/30 10:03:36;;;;;;;;;;;11.30;62.90;;;;;;5003288;28;87844;-39
2022/10/30 10:06:02;;;;;;;;;;;11.30;62.60;;;;;;5003002;28;88153;-39
2022/10/30 10:08:31;;;;;;;;;;;11.30;62.70;;;;;;5003674;28;88281;-39
2022/10/30 10:10:59;;;;;;;;;;;11.30;63.00;;;;;;5003058;28;88288;-39
2022/10/30 10:13:30;;;;;;;;;;;11.30;62.90;;;;;;5003081;28;87089;-39
2022/10/30 10:15:58;;;;;;;;;;;11.30;63.00;;;;;;5003471;28;87617;-39
2022/10/30 10:18:25;;;;;;;;;;;11.30;62.90;;;;;;5002921;28;88102;-39
2022/10/30 10:20:52;;;;;;;;;;;11.40;62.90;;;;;;5006116;28;87129;-39
2022/10/30 10:23:37;;;;;;;;;;;11.40;63.30;;;;;;5003698;28;87203;-39
2022/10/30 10:26:09;;;;;;;;;;;11.40;63.30;;;;;;5003536;28;86916;-39
2022/10/30 10:28:51;;;;;;;;;;;11.40;63.10;;;;;;5003410;28;87390;-39
2022/10/30 10:31:29;;;;;;;;;;;11.40;62.90;;;;;;5002152;28;88105;-39
2022/10/30 10:33:54;;;;;;;;;;;11.50;63.30;;;;;;5003257;28;87088;-39
2022/10/30 10:36:20;;;;;;;;;;;11.50;63.30;;;;;;5003405;28;87465;-39
2022/10/30 10:38:57;;;;;;;;;;;11.50;63.40;;;;;;5003060;28;87169;-39
2022/10/30 10:41:26;;;;;;;;;;;11.50;63.40;;;;;;5005895;28;87370;-39
2022/10/30 10:44:00;;;;;;;;;;;11.50;63.40;;;;;;5002724;28;88008;-39
2022/10/30 10:46:25;;;;;;;;;;;11.50;63.60;;;;;;5003073;28;87180;-39
2022/10/30 10:48:51;;;;;;;;;;;11.50;63.50;;;;;;5003672;28;87519;-39
2022/10/30 10:51:21;;;;;;;;;;;11.60;63.20;;;;;;5001849;28;88092;-38
2022/10/30 10:53:51;;;;;;;;;;;11.60;63.50;;;;;;5002844;28;87114;-39
2022/10/30 10:56:18;;;;;;;;;;;11.60;63.30;;;;;;5002525;28;88601;-39
2022/10/30 10:58:48;;;;;;;;;;;11.60;63.50;;;;;;5002458;28;88323;-39
2022/10/30 11:01:16;;;;;;;;;;;11.60;63.50;;;;;;5002901;28;87091;-39
2022/10/30 11:04:01;;;;;;;;;;;11.70;63.70;;;;;;5005127;28;87587;-39
2022/10/30 11:06:47;;;;;;;;;;;11.70;63.70;;;;;;5002719;28;87104;-39
2022/10/30 11:09:15;;;;;;;;;;;11.70;63.70;;;;;;5002600;28;87052;-39
2022/10/30 11:11:41;;;;;;;;;;;11.70;63.80;;;;;;5001549;28;88007;-39
2022/10/30 11:14:12;;;;;;;;;;;11.70;63.80;;;;;;5003324;28;86381;-39
2022/10/30 11:16:49;;;;;;;;;;;11.80;63.80;;;;;;5002667;28;86932;-39
2022/10/30 11:19:14;;;;;;;;;;;11.70;63.80;;;;;;5002142;28;88258;-39
2022/10/30 11:21:59;;;;;;;;;;;11.80;63.80;;;;;;5001960;28;87942;-39
2022/10/30 11:24:28;;;;;;;;;;;11.80;63.80;;;;;;5002675;28;87430;-39
2022/10/30 11:26:55;;;;;;;;;;;11.80;63.50;;;;;;5005219;28;87945;-39
2022/10/30 11:29:28;;;;;;;;;;;11.80;63.70;;;;;;5002611;28;86948;-39
2022/10/30 11:32:16;;;;;;;;;;;11.90;63.90;;;;;;5001883;28;87916;-39
2022/10/30 11:34:42;;;;;;;;;;;11.90;63.80;;;;;;5002666;28;86982;-39
2022/10/30 11:37:27;;;;;;;;;;;11.90;63.90;;;;;;5002511;28;87273;-39
2022/10/30 11:40:02;;;;;;;;;;;11.90;63.90;;;;;;5002387;28;87349;-39
2022/10/30 11:42:27;;;;;;;;;;;12.00;64.00;;;;;;5002222;28;87013;-39
2022/10/30 11:44:53;;;;;;;;;;;12.00;64.00;;;;;;5002401;28;87411;-39
2022/10/30 11:47:23;;;;;;;;;;;12.00;64.10;;;;;;5001243;28;89108;-39
2022/10/30 11:49:53;;;;;;;;;;;12.00;64.10;;;;;;5005096;28;87041;-39
2022/10/30 11:52:20;;;;;;;;;;;12.00;64.00;;;;;;5001617;28;88189;-39
2022/10/30 11:54:47;;;;;;;;;;;12.00;64.00;;;;;;5002245;28;88284;-39
2022/10/30 11:57:32;;;;;;;;;;;12.10;64.00;;;;;;5002106;28;87542;-39
2022/10/30 11:59:57;;;;;;;;;;;12.10;64.00;;;;;;5001850;28;87997;-39
2022/10/30 12:02:28;;;;;;;;;;;12.10;64.00;;;;;;5002775;28;87182;-39
2022/10/30 12:04:59;;;;;;;;;;;12.20;64.30;;;;;;5006199;28;86396;-39
2022/10/30 12:07:28;;;;;;;;;;;12.20;64.00;;;;;;5004847;28;88009;-39
2022/10/30 12:09:53;;;;;;;;;;;12.20;64.10;;;;;;5005685;28;87120;-39
2022/10/30 12:12:31;;;;;;;;;;;12.20;64.20;;;;;;5006943;28;87924;-39
2022/10/30 12:15:12;;;;;;;;;;;12.20;64.20;;;;;;5005696;28;87083;-38
2022/10/30 12:17:38;;;;;;;;;;;12.20;64.20;;;;;;5005436;28;87266;-39
2022/10/30 12:20:04;;;;;;;;;;;12.30;64.30;;;;;;5004831;28;88012;-39
2022/10/30 12:22:31;;;;;;;;;;;12.30;64.20;;;;;;5005150;28;87084;-39
2022/10/30 12:24:58;;;;;;;;;;;12.30;64.30;;;;;;5005177;28;87842;-39
2022/10/30 12:27:24;;;;;;;;;;;12.30;64.40;;;;;;5004887;28;88183;-38
2022/10/30 12:29:50;;;;;;;;;;;12.40;64.40;;;;;;5005583;28;86261;-38
2022/10/30 12:32:18;;;;;;;;;;;12.40;64.30;;;;;;5005341;28;87011;-39
2022/10/30 12:34:47;;;;;;;;;;;12.40;64.40;;;;;;5007557;28;88052;-39
2022/10/30 12:37:36;;;;;;;;;;;12.40;64.40;;;;;;5004344;28;88351;-39
2022/10/30 12:40:23;;;;;;;;;;;12.40;64.20;;;;;;5003805;28;87952;-38
2022/10/30 12:42:58;;;;;;;;;;;12.50;64.40;;;;;;5004928;28;87111;-39
2022/10/30 12:45:27;;;;;;;;;;;12.50;64.50;;;;;;5005037;28;87587;-39
2022/10/30 12:48:10;;;;;;;;;;;12.50;64.30;;;;;;5004225;28;87903;-40
2022/10/30 12:50:35;;;;;;;;;;;12.60;64.30;;;;;;4994216;28;86991;-38
2022/10/30 12:53:19;;;;;;;;;;;13.20;63.80;;;;;;4985110;28;87460;-41
2022/10/30 12:55:47;;;;;;;;;;;13.10;65.50;;;;;;4988179;28;87337;-40
2022/10/30 12:58:13;;;;;;;;;;;13.50;62.60;;;;;;4984872;28;86974;-39
2022/10/30 13:01:04;;;;;;;;;;;14.00;61.40;;;;;;4984604;28;87513;-40
2022/10/30 13:03:49;;;;;;;;;;;14.20;60.60;;;;;;4982542;28;89035;-39
2022/10/30 13:06:16;;;;;;;;;;;14.30;61.40;;;;;;4984586;28;88327;-40
2022/10/30 13:09:00;;;;;;;;;;;14.40;61.10;;;;;;4984221;28;88166;-41
2022/10/30 13:11:37;;;;;;;;;;;14.60;61.10;;;;;;4984081;28;87022;-40
2022/10/30 13:14:04;;;;;;;;;;;14.80;59.70;;;;;;4984001;28;87054;-41
2022/10/30 13:16:30;;;;;;;;;;;15.00;59.10;;;;;;4983993;28;87458;-41
2022/10/30 13:18:59;;;;;;;;;;;15.00;60.70;;;;;;4987375;28;87087;-40
2022/10/30 13:21:57;;;;;;;;;;;15.00;59.80;;;;;;4984487;28;86389;-39
2022/10/30 13:24:26;;;;;;;;;;;14.90;62.10;;;;;;4982571;28;87141;-40
2022/10/30 13:26:54;;;;;;;;;;;14.80;59.90;;;;;;4984186;28;87552;-40
2022/10/30 13:29:32;;;;;;;;;;;14.90;59.90;;;;;;4982932;28;89052;-41
2022/10/30 13:32:16;;;;;;;;;;;15.10;59.10;;;;;;4984437;28;87302;-38
2022/10/30 13:34:47;;;;;;;;;;;15.20;58.20;;;;;;4984333;28;87604;-42
2022/10/30 13:37:15;;;;;;;;;;;15.30;57.20;;;;;;4983836;28;88078;-43
2022/10/30 13:39:50;;;;;;;;;;;15.50;57.20;;;;;;4984178;28;87095;-46
2022/10/30 13:42:15;;;;;;;;;;;15.50;57.30;;;;;;4986321;28;87004;-42
2022/10/30 13:44:40;;;;;;;;;;;15.30;57.30;;;;;;4983958;28;87067;-44
2022/10/30 13:47:18;;;;;;;;;;;15.50;56.40;;;;;;4984733;28;87457;-38
2022/10/30 13:49:52;;;;;;;;;;;15.30;56.90;;;;;;4983537;28;87235;-38
2022/10/30 13:52:19;;;;;;;;;;;15.00;58.20;;;;;;4983980;28;87151;-38
2022/10/30 13:54:58;;;;;;;;;;;14.70;59.20;;;;;;4983348;28;88064;-37
2022/10/30 13:57:23;;;;;;;;;;;14.50;59.70;;;;;;4983222;28;88206;-38
2022/10/30 13:59:49;;;;;;;;;;;14.40;60.20;;;;;;4983919;28;86991;-38
2022/10/30 14:02:17;;;;;;;;;;;14.40;60.50;;;;;;4983899;28;87449;-37
2022/10/30 14:04:52;;;;;;;;;;;14.30;60.80;;;;;;4986230;28;87923;-38
2022/10/30 14:07:31;;;;;;;;;;;14.30;61.00;;;;;;4983818;28;87453;-38
2022/10/30 14:10:07;;;;;;;;;;;14.20;61.10;;;;;;4983351;28;87124;-38
2022/10/30 14:12:51;;;;;;;;;;;14.20;61.40;;;;;;4983983;28;86332;-38
2022/10/30 14:15:28;;;;;;;;;;;14.20;61.40;;;;;;4983665;28;87006;-39
2022/10/30 14:18:12;;;;;;;;;;;14.50;60.00;;;;;;4983227;28;88204;-42
2022/10/30 14:20:45;;;;;;;;;;;14.90;59.00;;;;;;4982725;28;88029;-40
2022/10/30 14:23:12;;;;;;;;;;;15.00;58.80;;;;;;4983467;28;88290;-40